Time;durP1;ratioP1;P1;durP2;ratioP2;P2;SDS_P1;SDS_P2;PMS_P1;PMS_P2;Temp;Humidity;BMP_temperature;BMP_pressure;BME280_temperature;BME280_humidity;BME280_pressure;Samples;Min_cycle;Max_cycle;Signal;HPM_P1;HPM_P2
2022/09/22 00:01:20;;;;;;;9.35;6.33;;;;;;;10.86;100.00;99315.35;1731104;83;21546;-73
2022/09/22 00:03:54;;;;;;;13.72;6.08;;;;;;;10.80;100.00;99306.44;1731193;83;21010;-73
2022/09/22 00:06:25;;;;;;;6.33;4.90;;;;;;;10.74;100.00;99300.05;1703323;83;21095;-72
2022/09/22 00:08:59;;;;;;;11.93;6.17;;;;;;;10.68;100.00;99304.93;1731127;83;20995;-73
2022/09/22 00:11:29;;;;;;;14.20;6.58;;;;;;;10.69;100.00;99305.98;1731571;83;20958;-72
2022/09/22 00:14:01;;;;;;;9.25;6.47;;;;;;;10.74;100.00;99306.93;1731281;83;20962;-70
2022/09/22 00:16:32;;;;;;;10.45;6.37;;;;;;;10.80;100.00;99310.56;1731290;83;21057;-71
2022/09/22 00:19:00;;;;;;;8.00;5.60;;;;;;;10.85;100.00;99312.34;1731182;83;21116;-70
2022/09/22 00:21:27;;;;;;;7.67;5.62;;;;;;;10.81;100.00;99316.90;1731026;83;21432;-72
2022/09/22 00:23:53;;;;;;;10.50;5.70;;;;;;;10.76;100.00;99310.17;1731035;83;20971;-73
2022/09/22 00:26:22;;;;;;;9.03;6.17;;;;;;;10.75;100.00;99313.49;1731181;83;21059;-73
2022/09/22 00:28:51;;;;;;;8.18;5.78;;;;;;;10.75;100.00;99311.33;1731098;83;21078;-72
2022/09/22 00:31:22;;;;;;;10.50;6.90;;;;;;;10.67;100.00;99311.56;1731052;83;21252;-72
2022/09/22 00:33:52;;;;;;;13.03;7.53;;;;;;;10.63;100.00;99311.39;1731316;83;21484;-72
2022/09/22 00:36:21;;;;;;;9.45;7.05;;;;;;;10.66;100.00;99314.87;1731031;83;21058;-73
2022/09/22 00:38:51;;;;;;;10.93;6.90;;;;;;;10.71;100.00;99310.58;1731445;83;20982;-70
2022/09/22 00:41:22;;;;;;;9.58;7.08;;;;;;;10.79;100.00;99310.89;1731371;83;20951;-72
2022/09/22 00:44:11;;;;;;;11.97;6.10;;;;;;;10.85;100.00;99314.30;1729839;83;21126;-72
2022/09/22 00:46:39;;;;;;;12.00;6.53;;;;;;;10.85;100.00;99313.72;1731059;83;21063;-71
2022/09/22 00:49:06;;;;;;;13.68;6.78;;;;;;;10.88;100.00;99317.22;1731208;83;21447;-72
2022/09/22 00:51:38;;;;;;;9.53;6.80;;;;;;;10.93;100.00;99318.42;1731622;83;20959;-73
2022/09/22 00:54:09;;;;;;;11.08;6.22;;;;;;;10.95;100.00;99314.75;1703023;83;20959;-72
2022/09/22 00:56:42;;;;;;;11.03;6.85;;;;;;;10.96;100.00;99311.44;1681925;84;21096;-73
2022/09/22 00:59:13;;;;;;;9.55;6.78;;;;;;;10.97;100.00;99309.50;1679024;85;20992;-71
2022/09/22 01:01:41;;;;;;;11.95;7.22;;;;;;;11.01;100.00;99314.02;1679799;85;20968;-72
2022/09/22 01:04:08;;;;;;;10.63;6.72;;;;;;;11.05;100.00;99312.20;1679740;85;20976;-72
2022/09/22 01:06:38;;;;;;;9.23;6.70;;;;;;;11.10;100.00;99314.00;1679442;85;21520;-70
2022/09/22 01:09:05;;;;;;;10.82;7.60;;;;;;;11.14;100.00;99319.08;1679481;85;21408;-74
2022/09/22 01:11:31;;;;;;;8.55;6.50;;;;;;;11.20;100.00;99321.11;1679394;85;20959;-74
2022/09/22 01:14:30;;;;;;;9.73;6.53;;;;;;;11.24;100.00;99324.02;1679481;85;21364;-74
2022/09/22 01:17:33;;;;;;;10.72;6.25;;;;;;;11.25;100.00;99319.55;1679274;85;21591;-74
2022/09/22 01:20:40;;;;;;;10.50;6.33;;;;;;;11.27;100.00;99316.46;1679379;85;20932;-74
2022/09/22 01:23:41;;;;;;;7.08;6.25;;;;;;;11.28;100.00;99320.27;1679617;85;21920;-74
2022/09/22 01:26:43;;;;;;;8.63;5.95;;;;;;;11.32;100.00;99319.86;1679517;85;21015;-72
2022/09/22 01:30:01;;;;;;;9.23;6.25;;;;;;;11.38;100.00;99316.33;1679493;85;21008;-74
2022/09/22 01:32:34;;;;;;;8.45;5.75;;;;;;;11.42;100.00;99317.86;1679389;85;21118;-74
2022/09/22 01:35:23;;;;;;;10.40;7.20;;;;;;;11.43;100.00;99310.62;1679407;85;21048;-74
2022/09/22 01:38:17;;;;;;;10.38;6.80;;;;;;;11.44;100.00;99315.02;1679594;85;21069;-75
2022/09/22 01:40:52;;;;;;;9.03;6.78;;;;;;;11.46;100.00;99320.77;1669298;85;21457;-74
2022/09/22 01:43:50;;;;;;;11.15;7.58;;;;;;;11.50;100.00;99318.98;1679483;85;21564;-72
2022/09/22 01:46:37;;;;;;;11.28;7.30;;;;;;;11.53;100.00;99323.83;1678715;85;20889;-75
2022/09/22 01:49:07;;;;;;;9.33;7.33;;;;;;;11.54;100.00;99313.84;1679143;85;20973;-71
2022/09/22 01:51:40;;;;;;;11.03;7.37;;;;;;;11.58;100.00;99319.51;1679652;85;21689;-75
2022/09/22 01:54:11;;;;;;;11.55;6.97;;;;;;;11.60;100.00;99314.45;1679570;85;20985;-74
2022/09/22 01:56:40;;;;;;;10.05;6.40;;;;;;;11.61;100.00;99314.70;1679477;84;21519;-75
2022/09/22 01:59:07;;;;;;;8.88;6.30;;;;;;;11.61;100.00;99306.42;1679383;85;20932;-74
2022/09/22 02:01:38;;;;;;;8.95;6.35;;;;;;;11.60;100.00;99304.00;1679432;85;21027;-75
2022/09/22 02:04:10;;;;;;;10.23;6.25;;;;;;;11.63;100.00;99308.84;1679502;85;21130;-75
2022/09/22 02:06:46;;;;;;;6.78;5.20;;;;;;;11.64;100.00;99309.89;1679234;85;21083;-72
2022/09/22 02:09:19;;;;;;;9.35;6.05;;;;;;;11.66;100.00;99313.13;1679290;85;20943;-72
2022/09/22 02:11:48;;;;;;;7.42;5.65;;;;;;;11.69;100.00;99315.22;1679570;85;20932;-73
2022/09/22 02:14:14;;;;;;;8.03;5.97;;;;;;;11.72;100.00;99312.36;1679604;85;20952;-71
2022/09/22 02:16:45;;;;;;;7.97;5.92;;;;;;;11.72;100.00;99310.19;1679324;85;21938;-74
2022/09/22 02:19:33;;;;;;;6.58;5.50;;;;;;;11.71;100.00;99309.37;1679340;85;21139;-72
2022/09/22 02:21:59;;;;;;;7.22;6.00;;;;;;;11.73;100.00;99302.13;1679654;85;21202;-69
2022/09/22 02:24:33;;;;;;;8.00;4.70;;;;;;;11.72;100.00;99306.05;1679527;85;20990;-73
2022/09/22 02:27:25;;;;;;;9.13;5.35;;;;;;;11.71;100.00;99303.84;1679459;85;21019;-74
2022/09/22 02:30:00;;;;;;;7.37;5.83;;;;;;;11.75;100.00;99308.13;1678802;85;21474;-70
2022/09/22 02:32:27;;;;;;;11.43;5.75;;;;;;;11.77;100.00;99303.89;1679212;85;21063;-71
2022/09/22 02:34:54;;;;;;;10.32;5.95;;;;;;;11.72;100.00;99297.17;1679424;85;21010;-71
2022/09/22 02:37:57;;;;;;;7.55;6.12;;;;;;;11.64;100.00;99289.75;1679554;85;21496;-74
2022/09/22 02:40:59;;;;;;;7.17;5.50;;;;;;;11.54;100.00;99287.63;1679621;85;20912;-72
2022/09/22 02:43:43;;;;;;;8.33;5.50;;;;;;;11.46;100.00;99280.20;1679730;85;21090;-72
2022/09/22 02:46:27;;;;;;;10.63;5.12;;;;;;;11.40;100.00;99284.27;1679220;85;20959;-73
2022/09/22 02:48:58;;;;;;;6.67;4.62;;;;;;;11.32;100.00;99282.63;1679743;85;20924;-73
2022/09/22 02:51:25;;;;;;;10.23;6.15;;;;;;;11.26;100.00;99288.65;1679539;85;21490;-73
2022/09/22 02:53:51;;;;;;;7.08;5.40;;;;;;;11.23;100.00;99287.91;1679543;85;21563;-71
2022/09/22 02:56:19;;;;;;;8.33;5.75;;;;;;;11.17;100.00;99281.19;1687708;83;21134;-73
2022/09/22 02:58:45;;;;;;;7.65;5.47;;;;;;;11.10;100.00;99283.67;1696687;84;20988;-73
2022/09/22 03:01:12;;;;;;;6.97;6.03;;;;;;;11.00;100.00;99273.00;1696540;84;20983;-69
2022/09/22 03:03:40;;;;;;;8.95;4.97;;;;;;;10.92;100.00;99276.82;1696794;84;20967;-71
2022/09/22 03:06:08;;;;;;;10.32;5.55;;;;;;;10.88;100.00;99283.33;1697041;84;20979;-73
2022/09/22 03:08:35;;;;;;;9.23;6.30;;;;;;;10.86;100.00;99289.73;1696744;84;21096;-73
2022/09/22 03:11:01;;;;;;;7.00;5.83;;;;;;;10.88;100.00;99288.84;1696709;84;20995;-73
2022/09/22 03:13:28;;;;;;;9.05;6.72;;;;;;;10.87;100.00;99292.16;1696595;84;21027;-73
2022/09/22 03:15:55;;;;;;;8.63;6.03;;;;;;;10.89;100.00;99291.27;1696690;84;21007;-70
2022/09/22 03:18:21;;;;;;;13.05;7.30;;;;;;;10.89;100.00;99303.67;1696953;84;20931;-70
2022/09/22 03:20:49;;;;;;;11.03;7.28;;;;;;;10.77;100.00;99293.88;1696715;84;21461;-70
2022/09/22 03:23:16;;;;;;;9.68;6.72;;;;;;;10.69;100.00;99298.27;1696821;84;20920;-73
2022/09/22 03:25:43;;;;;;;9.78;6.55;;;;;;;10.64;100.00;99294.30;1667130;84;20975;-73
2022/09/22 03:28:10;;;;;;;12.98;6.72;;;;;;;10.62;100.00;99294.63;1696611;84;21060;-73
2022/09/22 03:30:39;;;;;;;13.85;7.15;;;;;;;10.63;100.00;99292.70;1696725;84;21098;-71
2022/09/22 03:33:06;;;;;;;9.35;6.67;;;;;;;10.68;100.00;99302.17;1696690;84;21138;-73
2022/09/22 03:35:34;;;;;;;10.82;6.97;;;;;;;10.76;100.00;99306.05;1696649;84;20908;-71
2022/09/22 03:38:02;;;;;;;8.28;5.95;;;;;;;10.80;100.00;99302.86;1696981;84;21070;-73
2022/09/22 03:40:29;;;;;;;7.58;5.97;;;;;;;10.79;100.00;99302.07;1696764;84;20967;-73
2022/09/22 03:42:56;;;;;;;8.70;4.97;;;;;;;10.83;100.00;99308.53;1697004;84;20911;-72
2022/09/22 03:45:26;;;;;;;7.80;5.62;;;;;;;10.83;100.00;99308.53;1696677;84;22129;-73
2022/09/22 03:47:53;;;;;;;6.75;5.15;;;;;;;10.81;100.00;99310.83;1696617;84;21512;-72
2022/09/22 03:50:20;;;;;;;12.95;5.72;;;;;;;10.79;100.00;99316.41;1697000;84;20919;-73
2022/09/22 03:52:47;;;;;;;9.65;5.97;;;;;;;10.80;100.00;99324.34;1696559;84;20944;-69
2022/09/22 03:55:14;;;;;;;13.10;6.62;;;;;;;10.85;100.00;99319.81;1696867;84;20928;-72
2022/09/22 03:57:42;;;;;;;9.48;6.40;;;;;;;10.91;100.00;99325.39;1696687;83;21579;-72
2022/09/22 04:00:12;;;;;;;8.83;6.30;;;;;;;11.00;100.00;99328.13;1696449;84;21059;-72
2022/09/22 04:02:39;;;;;;;8.40;6.58;;;;;;;11.09;100.00;99327.53;1696935;84;21015;-71
2022/09/22 04:05:07;;;;;;;9.73;6.80;;;;;;;11.14;100.00;99328.73;1696650;84;21031;-72
2022/09/22 04:07:34;;;;;;;12.50;6.97;;;;;;;11.22;100.00;99334.00;1696896;84;20923;-73
2022/09/22 04:10:01;;;;;;;10.70;7.85;;;;;;;11.29;100.00;99330.73;1696762;84;21139;-72
2022/09/22 04:12:29;;;;;;;12.25;7.58;;;;;;;11.35;100.00;99330.78;1696825;84;20947;-69
2022/09/22 04:14:56;;;;;;;15.98;7.62;;;;;;;11.42;100.00;99327.52;1696580;84;20986;-73
2022/09/22 04:17:24;;;;;;;19.00;8.98;;;;;;;11.46;100.00;99324.91;1696781;84;20931;-73
2022/09/22 04:19:52;;;;;;;17.52;10.10;;;;;;;11.48;100.00;99324.02;1696782;84;21022;-71
2022/09/22 04:22:19;;;;;;;13.05;9.40;;;;;;;11.51;100.00;99331.63;1696848;84;21504;-73
2022/09/22 04:24:46;;;;;;;17.15;8.40;;;;;;;11.53;100.00;99335.66;1696856;84;20939;-72
2022/09/22 04:27:12;;;;;;;13.25;9.15;;;;;;;11.50;100.00;99332.77;1696767;84;20956;-73
2022/09/22 04:29:39;;;;;;;14.93;8.65;;;;;;;11.49;100.00;99337.48;1696708;84;20999;-71
2022/09/22 04:32:10;;;;;;;18.57;8.88;;;;;;;11.51;100.00;99333.00;1696842;84;21476;-72
2022/09/22 04:34:39;;;;;;;15.00;8.13;;;;;;;11.50;100.00;99334.16;1696757;84;21133;-72
2022/09/22 04:37:07;;;;;;;14.20;9.38;;;;;;;11.52;100.00;99331.85;1696684;84;20935;-69
2022/09/22 04:39:35;;;;;;;12.65;9.40;;;;;;;11.56;100.00;99338.34;1697051;84;21484;-71
2022/09/22 04:42:04;;;;;;;12.25;8.83;;;;;;;11.62;100.00;99334.80;1696648;84;20959;-73
2022/09/22 04:44:34;;;;;;;12.73;8.80;;;;;;;11.69;100.00;99342.00;1696921;84;20971;-73
2022/09/22 04:47:02;;;;;;;10.28;7.53;;;;;;;11.76;100.00;99338.72;1696864;84;21152;-73
2022/09/22 04:49:29;;;;;;;15.38;8.65;;;;;;;11.80;100.00;99334.17;1696686;84;20888;-71
2022/09/22 04:51:56;;;;;;;12.82;8.83;;;;;;;11.82;100.00;99338.80;1696750;84;20931;-73
2022/09/22 04:54:24;;;;;;;15.23;9.58;;;;;;;11.85;100.00;99337.30;1696782;84;21457;-73
2022/09/22 04:56:51;;;;;;;11.75;8.83;;;;;;;11.86;100.00;99341.11;1696649;83;21051;-71
2022/09/22 04:59:17;;;;;;;13.53;8.90;;;;;;;11.91;100.00;99343.68;1696719;84;21089;-72
2022/09/22 05:01:44;;;;;;;17.23;9.30;;;;;;;11.95;100.00;99341.62;1696697;84;21389;-72
2022/09/22 05:04:10;;;;;;;13.72;9.93;;;;;;;11.99;100.00;99343.97;1697098;84;21539;-73
2022/09/22 05:06:40;;;;;;;13.45;9.58;;;;;;;12.00;100.00;99346.39;1696804;84;20927;-73
2022/09/22 05:09:07;;;;;;;14.98;10.98;;;;;;;12.03;100.00;99350.42;1696693;84;20991;-73
2022/09/22 05:11:33;;;;;;;14.80;10.15;;;;;;;12.05;100.00;99350.91;1696732;84;21135;-74
2022/09/22 05:14:01;;;;;;;16.73;10.35;;;;;;;12.04;100.00;99349.30;1696693;84;21499;-74
2022/09/22 05:16:30;;;;;;;15.20;11.12;;;;;;;12.04;100.00;99352.06;1696669;84;21035;-73
2022/09/22 05:18:57;;;;;;;19.52;11.83;;;;;;;12.04;100.00;99356.20;1696843;84;20921;-74
2022/09/22 05:21:24;;;;;;;21.73;11.55;;;;;;;12.04;100.00;99357.59;1696706;84;21011;-71
2022/09/22 05:23:51;;;;;;;22.67;13.28;;;;;;;12.03;100.00;99360.09;1696725;84;21118;-74
2022/09/22 05:26:18;;;;;;;20.82;12.47;;;;;;;12.01;100.00;99361.02;1696963;84;20984;-74
2022/09/22 05:28:50;;;;;;;17.73;12.75;;;;;;;12.01;100.00;99365.95;1696797;84;20935;-73
2022/09/22 05:31:17;;;;;;;19.65;12.78;;;;;;;12.02;100.00;99373.11;1696802;84;20959;-74
2022/09/22 05:33:43;;;;;;;17.48;11.88;;;;;;;12.04;100.00;99374.94;1696712;84;20848;-74
2022/09/22 05:36:12;;;;;;;18.60;12.63;;;;;;;12.04;100.00;99368.04;1696644;84;21328;-72
2022/09/22 05:38:39;;;;;;;19.67;12.58;;;;;;;12.02;100.00;99377.25;1696891;84;20978;-74
2022/09/22 05:41:05;;;;;;;24.72;13.78;;;;;;;11.97;100.00;99372.48;1696723;84;20956;-74
2022/09/22 05:43:32;;;;;;;16.50;12.35;;;;;;;11.96;100.00;99368.11;1696874;84;20973;-72
2022/09/22 05:45:59;;;;;;;17.02;11.35;;;;;;;11.98;100.00;99370.77;1696801;84;20931;-73
2022/09/22 05:48:26;;;;;;;23.40;12.85;;;;;;;12.01;100.00;99372.06;1696742;84;21408;-71
2022/09/22 05:50:53;;;;;;;18.73;12.82;;;;;;;12.04;100.00;99370.80;1696710;84;20923;-74
2022/09/22 05:53:20;;;;;;;18.17;12.98;;;;;;;12.07;100.00;99372.10;1696711;84;21006;-74
2022/09/22 05:55:48;;;;;;;19.92;12.25;;;;;;;12.07;100.00;99367.95;1696665;83;21032;-74
2022/09/22 05:58:16;;;;;;;16.52;11.63;;;;;;;12.09;100.00;99378.70;1681580;84;20920;-74
2022/09/22 06:00:43;;;;;;;16.48;12.10;;;;;;;12.13;100.00;99373.55;1679517;85;21454;-72
2022/09/22 06:03:11;;;;;;;19.67;13.75;;;;;;;12.19;100.00;99376.12;1679689;85;20976;-73
2022/09/22 06:05:38;;;;;;;18.23;12.63;;;;;;;12.23;100.00;99378.46;1679703;85;21472;-74
2022/09/22 06:08:05;;;;;;;19.05;13.00;;;;;;;12.23;100.00;99375.70;1679374;85;20992;-74
2022/09/22 06:10:35;;;;;;;17.45;12.35;;;;;;;12.24;100.00;99380.88;1679171;85;20924;-74
2022/09/22 06:13:06;;;;;;;16.57;12.43;;;;;;;12.24;100.00;99378.13;1679362;85;21866;-73
2022/09/22 06:15:35;;;;;;;15.50;11.78;;;;;;;12.28;100.00;99381.03;1679553;85;21035;-73
2022/09/22 06:18:06;;;;;;;17.82;12.13;;;;;;;12.29;100.00;99379.88;1679444;85;20940;-74
2022/09/22 06:20:35;;;;;;;20.75;12.03;;;;;;;12.29;100.00;99374.34;1679378;85;21588;-74
2022/09/22 06:23:01;;;;;;;15.85;11.28;;;;;;;12.29;100.00;99383.45;1679582;85;21543;-73
2022/09/22 06:25:28;;;;;;;16.12;12.15;;;;;;;12.31;100.00;99380.35;1679242;85;21657;-68
2022/09/22 06:28:03;;;;;;;17.07;11.45;;;;;;;12.35;100.00;99379.91;1679479;85;21441;-72
2022/09/22 06:30:38;;;;;;;18.15;11.43;;;;;;;12.37;100.00;99376.80;1679490;85;20928;-72
2022/09/22 06:33:06;;;;;;;15.83;11.20;;;;;;;12.37;100.00;99369.89;1679697;85;20932;-73
2022/09/22 06:35:36;;;;;;;16.35;11.18;;;;;;;12.39;100.00;99372.58;1679485;85;20885;-73
2022/09/22 06:38:08;;;;;;;15.65;10.38;;;;;;;12.41;100.00;99373.61;1679348;85;21128;-73
2022/09/22 06:40:37;;;;;;;16.65;10.72;;;;;;;12.45;100.00;99374.58;1679330;85;20933;-74
2022/09/22 06:43:10;;;;;;;14.93;10.80;;;;;;;12.49;100.00;99381.59;1679403;85;21005;-70
2022/09/22 06:45:34;;;;;;;17.77;11.60;;;;;;;12.53;100.00;99380.61;1678649;85;21508;-71
2022/09/22 06:48:03;;;;;;;13.88;9.35;;;;;;;12.57;100.00;99377.16;1679306;85;21000;-73
2022/09/22 06:50:31;;;;;;;13.00;9.33;;;;;;;12.60;100.00;99382.83;1679379;85;21210;-72
2022/09/22 06:53:02;;;;;;;10.88;9.28;;;;;;;12.65;100.00;99388.16;1679162;85;20976;-73
2022/09/22 06:55:29;;;;;;;15.63;9.05;;;;;;;12.70;100.00;99389.08;1679988;84;21291;-72
2022/09/22 06:57:58;;;;;;;13.40;9.38;;;;;;;12.70;100.00;99389.08;1690067;84;20983;-73
2022/09/22 07:00:30;;;;;;;12.58;9.08;;;;;;;12.68;100.00;99389.98;1696919;84;21384;-71
2022/09/22 07:03:23;;;;;;;19.45;11.40;;;;;;;12.68;100.00;99388.04;1696616;84;21155;-71
2022/09/22 07:06:00;;;;;;;10.50;8.23;;;;;;;12.68;100.00;99396.33;1695129;84;21010;-71
2022/09/22 07:08:28;;;;;;;11.12;8.20;;;;;;;12.71;100.00;99396.25;1696908;84;20907;-74
2022/09/22 07:11:03;;;;;;;13.32;8.53;;;;;;;12.77;100.00;99394.89;1696642;84;21393;-72
2022/09/22 07:13:31;;;;;;;11.47;8.73;;;;;;;12.78;100.00;99396.49;1696986;84;20962;-67
2022/09/22 07:16:01;;;;;;;11.53;8.15;;;;;;;12.80;100.00;99398.92;1696646;84;21308;-73
2022/09/22 07:18:30;;;;;;;13.05;8.73;;;;;;;12.85;100.00;99399.53;1696644;84;21007;-67
2022/09/22 07:21:07;;;;;;;11.90;8.80;;;;;;;12.94;100.00;99402.22;1696770;84;20996;-73
2022/09/22 07:23:35;;;;;;;12.15;7.45;;;;;;;13.02;100.00;99399.13;1696756;84;21022;-74
2022/09/22 07:26:05;;;;;;;8.93;6.85;;;;;;;13.10;100.00;99402.98;1696933;84;20999;-74
2022/09/22 07:28:34;;;;;;;11.75;8.93;;;;;;;13.11;100.00;99401.25;1694610;84;21184;-73
2022/09/22 07:31:11;;;;;;;9.13;6.47;;;;;;;13.18;100.00;99404.85;1696681;84;21487;-71
2022/09/22 07:33:40;;;;;;;10.90;8.13;;;;;;;13.15;100.00;99399.41;1696661;84;21046;-69
2022/09/22 07:36:11;;;;;;;8.80;7.87;;;;;;;13.20;100.00;99398.98;1696641;84;20978;-71
2022/09/22 07:38:38;;;;;;;14.23;8.93;;;;;;;13.30;100.00;99399.11;1667552;84;20987;-75
2022/09/22 07:41:08;;;;;;;11.20;7.72;;;;;;;13.47;100.00;99398.94;1696638;84;21129;-73
2022/09/22 07:43:35;;;;;;;9.33;7.47;;;;;;;13.60;100.00;99398.97;1696588;84;20975;-71
2022/09/22 07:46:02;;;;;;;10.05;7.75;;;;;;;13.69;100.00;99396.92;1696777;84;20992;-73
2022/09/22 07:48:35;;;;;;;11.20;8.40;;;;;;;13.73;100.00;99394.28;1696868;84;21507;-71
2022/09/22 07:51:18;;;;;;;10.70;8.75;;;;;;;13.78;100.00;99396.00;1696603;84;20982;-72
2022/09/22 07:53:42;;;;;;;10.80;7.70;;;;;;;13.73;100.00;99397.05;1696424;84;21255;-70
2022/09/22 07:56:13;;;;;;;14.78;8.73;;;;;;;13.71;100.00;99391.04;1696620;83;20915;-73
2022/09/22 07:58:52;;;;;;;10.85;8.30;;;;;;;13.69;100.00;99389.19;1683001;84;20988;-74
2022/09/22 08:01:22;;;;;;;9.88;8.00;;;;;;;13.66;100.00;99391.27;1679308;85;20972;-75
2022/09/22 08:03:49;;;;;;;11.45;7.50;;;;;;;13.62;100.00;99382.27;1679589;85;21519;-71
2022/09/22 08:06:18;;;;;;;8.73;6.62;;;;;;;13.66;100.00;99381.58;1679293;85;21106;-74
2022/09/22 08:08:52;;;;;;;13.18;8.40;;;;;;;13.71;100.00;99379.39;1679228;85;20880;-74
2022/09/22 08:11:20;;;;;;;10.63;7.35;;;;;;;13.77;100.00;99380.55;1679426;85;21556;-74
2022/09/22 08:13:56;;;;;;;9.20;6.47;;;;;;;13.84;100.00;99376.05;1679251;85;21019;-74
2022/09/22 08:16:26;;;;;;;8.80;6.95;;;;;;;13.86;100.00;99376.52;1679367;85;20944;-73
2022/09/22 08:18:54;;;;;;;12.18;7.58;;;;;;;13.87;100.00;99377.30;1679334;85;21148;-73
2022/09/22 08:21:23;;;;;;;9.23;6.72;;;;;;;13.84;100.00;99373.28;1679224;85;20988;-70
2022/09/22 08:23:52;;;;;;;6.85;5.67;;;;;;;13.83;100.00;99377.78;1679331;85;21023;-66
2022/09/22 08:26:20;;;;;;;7.92;6.20;;;;;;;13.80;100.00;99377.88;1679385;85;21079;-70
2022/09/22 08:28:52;;;;;;;10.60;6.92;;;;;;;13.78;100.00;99373.28;1679474;85;21286;-72
2022/09/22 08:31:21;;;;;;;13.40;8.00;;;;;;;13.78;100.00;99380.20;1679264;85;21260;-73
2022/09/22 08:33:50;;;;;;;9.68;7.05;;;;;;;13.79;100.00;99374.07;1679237;85;20964;-73
2022/09/22 08:36:19;;;;;;;8.95;6.95;;;;;;;13.78;100.00;99378.00;1679401;85;20963;-72
2022/09/22 08:38:48;;;;;;;6.45;5.85;;;;;;;13.79;100.00;99379.05;1679261;85;20881;-69
2022/09/22 08:41:38;;;;;;;10.60;6.03;;;;;;;13.78;100.00;99382.98;1679414;85;21000;-73
2022/09/22 08:44:27;;;;;;;7.17;5.35;;;;;;;13.81;100.00;99379.52;1679266;85;22128;-69
2022/09/22 08:46:55;;;;;;;7.30;5.25;;;;;;;13.81;100.00;99375.92;1679275;85;20925;-69
2022/09/22 08:52:49;;;;;;;9.50;5.55;;;;;;;14.02;100.00;99381.36;1679337;85;21007;-68
2022/09/22 08:55:20;;;;;;;6.85;5.90;;;;;;;14.14;100.00;99381.94;1679584;84;21430;-71
2022/09/22 08:57:55;;;;;;;6.87;5.42;;;;;;;14.27;100.00;99379.95;1684057;84;21770;-74
2022/09/22 09:00:20;;;;;;;6.35;4.83;;;;;;;14.34;100.00;99379.36;1696747;84;21480;-69
2022/09/22 09:03:29;;;;;;;11.60;5.33;;;;;;;14.38;100.00;99375.31;1697174;84;20987;-73
2022/09/22 09:06:11;;;;;;;6.15;4.90;;;;;;;14.45;100.00;99375.53;1696741;84;20955;-69
2022/09/22 09:09:04;;;;;;;8.60;5.03;;;;;;;14.46;100.00;99379.91;1696912;84;20947;-73
2022/09/22 09:11:52;;;;;;;7.33;4.70;;;;;;;14.48;100.00;99377.60;1696365;84;21171;-75
2022/09/22 09:14:30;;;;;;;7.00;4.80;;;;;;;14.49;100.00;99381.98;1696787;84;21026;-75
2022/09/22 09:17:16;;;;;;;6.05;4.72;;;;;;;14.46;100.00;99373.80;1696528;84;20940;-73
2022/09/22 09:19:51;;;;;;;6.87;3.50;;;;;;;14.48;100.00;99372.84;1696981;84;21096;-72
2022/09/22 09:22:24;;;;;;;5.17;3.92;;;;;;;14.50;100.00;99379.42;1696703;84;20924;-72
2022/09/22 09:25:05;;;;;;;5.67;3.45;;;;;;;14.48;100.00;99374.83;1668587;84;21114;-74
2022/09/22 09:27:40;;;;;;;5.80;3.40;;;;;;;14.50;100.00;99371.11;1696815;84;21428;-74
2022/09/22 09:30:16;;;;;;;10.05;5.60;;;;;;;14.56;100.00;99367.52;1697236;84;20998;-71
2022/09/22 09:32:56;;;;;;;5.30;3.90;;;;;;;14.58;100.00;99370.19;1696642;84;21035;-73
2022/09/22 09:35:44;;;;;;;6.10;3.75;;;;;;;14.59;100.00;99372.36;1697038;84;20927;-73
2022/09/22 09:38:21;;;;;;;5.37;4.25;;;;;;;14.55;100.00;99369.48;1696838;84;21260;-72
2022/09/22 09:40:56;;;;;;;6.03;3.58;;;;;;;14.57;100.00;99375.48;1695891;84;21352;-72
2022/09/22 09:43:22;;;;;;;4.80;3.60;;;;;;;14.65;100.00;99371.55;1696734;84;21453;-75
2022/09/22 09:46:05;;;;;;;3.87;3.27;;;;;;;14.66;100.00;99367.03;1696677;84;21014;-73
2022/09/22 09:48:54;;;;;;;9.35;3.52;;;;;;;14.66;100.00;99370.38;1696744;84;20983;-73
2022/09/22 09:51:22;;;;;;;3.17;2.60;;;;;;;14.66;100.00;99370.38;1696161;84;21440;-72
2022/09/22 09:53:48;;;;;;;3.45;2.60;;;;;;;14.63;100.00;99368.31;1696775;84;21023;-71
2022/09/22 09:56:24;;;;;;;4.50;2.80;;;;;;;14.63;100.00;99365.53;1696826;83;21007;-71
2022/09/22 10:01:42;;;;;;;5.33;3.20;;;;;;;14.67;100.00;99365.08;1697131;84;21015;-73
2022/09/22 10:04:31;;;;;;;4.40;3.40;;;;;;;14.68;100.00;99368.06;1696755;84;21044;-71
2022/09/22 10:07:20;;;;;;;3.25;2.95;;;;;;;14.63;100.00;99371.90;1696493;84;21023;-70
2022/09/22 10:09:52;;;;;;;9.23;3.45;;;;;;;14.57;100.00;99371.89;1696716;84;21035;-73
2022/09/22 10:12:30;;;;;;;4.50;3.50;;;;;;;14.55;100.00;99369.48;1666717;84;20962;-73
2022/09/22 10:15:01;;;;;;;4.40;2.77;;;;;;;14.56;100.00;99373.06;1696717;84;20943;-72
2022/09/22 10:17:32;;;;;;;3.95;2.60;;;;;;;14.55;100.00;99372.25;1667646;84;21122;-70
2022/09/22 10:20:17;;;;;;;3.02;2.58;;;;;;;14.58;100.00;99375.73;1696701;84;20970;-71
2022/09/22 10:22:46;;;;;;;4.15;2.70;;;;;;;14.57;100.00;99376.05;1697004;84;21107;-73
2022/09/22 10:25:30;;;;;;;5.87;3.27;;;;;;;14.52;100.00;99379.88;1696725;84;21476;-70
2022/09/22 10:28:18;;;;;;;6.30;3.35;;;;;;;14.44;100.00;99377.48;1696982;84;20995;-73
2022/09/22 10:30:58;;;;;;;4.70;3.70;;;;;;;14.35;100.00;99387.32;1667515;84;20968;-70
2022/09/22 10:33:25;;;;;;;4.47;3.55;;;;;;;14.32;100.00;99382.48;1696907;84;20884;-73
2022/09/22 10:36:09;;;;;;;4.58;3.00;;;;;;;14.33;100.00;99380.52;1696692;84;21003;-71
2022/09/22 10:38:43;;;;;;;5.58;3.90;;;;;;;14.32;100.00;99380.27;1682395;84;38897;-72
2022/09/22 10:41:16;;;;;;;;;;;;;;;14.38;100.00;99383.63;1699216;84;21042;-73
2022/09/22 10:44:03;;;;;;;4.72;3.92;;;;;;;14.44;100.00;99383.61;1696809;84;21215;-73
2022/09/22 10:46:54;;;;;;;6.90;2.98;;;;;;;14.44;100.00;99378.88;1695537;84;21539;-70
2022/09/22 10:49:40;;;;;;;4.50;2.90;;;;;;;14.46;100.00;99375.75;1697226;84;20895;-69
2022/09/22 10:52:44;;;;;;;4.40;2.72;;;;;;;14.47;100.00;99378.74;1696914;84;21022;-69
2022/09/22 10:55:34;;;;;;;4.03;2.75;;;;;;;14.48;100.00;99372.84;1696613;83;21074;-70
2022/09/22 10:58:28;;;;;;;5.80;3.15;;;;;;;14.55;100.00;99380.56;1697445;84;21267;-71
2022/09/22 11:01:13;;;;;;;6.85;2.25;;;;;;;14.61;100.00;99372.82;1704157;84;20883;-71
2022/09/22 11:04:09;;;;;;;4.30;2.67;;;;;;;14.69;100.00;99373.83;1704358;84;20946;-71
2022/09/22 11:13:20;;;;;;;4.75;3.33;;;;;;;15.09;100.00;99361.92;1704892;84;21090;-73
2022/09/22 11:16:23;;;;;;;10.00;3.85;;;;;;;15.26;100.00;99360.55;1704733;84;21026;-72
2022/09/22 11:19:13;;;;;;;6.95;3.55;;;;;;;15.41;100.00;99361.72;1704946;83;21006;-65
2022/09/22 11:21:52;;;;;;;12.78;4.95;;;;;;;15.43;100.00;99357.45;1704630;84;20999;-71
2022/09/22 11:24:49;;;;;;;4.80;2.90;;;;;;;15.44;100.00;99365.17;1704836;84;20966;-69
2022/09/22 11:27:42;;;;;;;4.75;2.62;;;;;;;15.44;100.00;99359.62;1701203;84;21256;-71
2022/09/22 11:30:22;;;;;;;2.45;2.02;;;;;;;15.35;100.00;99360.38;1689665;83;21086;-72
2022/09/22 11:33:10;;;;;;;4.90;2.30;;;;;;;15.25;100.00;99352.01;1704677;84;20999;-68
2022/09/22 11:36:09;;;;;;;5.42;2.27;;;;;;;15.24;100.00;99347.60;1704273;84;21001;-70
2022/09/22 11:38:47;;;;;;;5.75;2.10;;;;;;;15.28;100.00;99344.35;1704823;84;20971;-71
2022/09/22 11:41:46;;;;;;;2.33;1.95;;;;;;;15.31;100.00;99351.39;1704221;84;22153;-70
2022/09/22 11:44:36;;;;;;;2.72;2.10;;;;;;;15.30;100.00;99347.58;1704669;84;20962;-70
2022/09/22 11:47:11;;;;;;;2.45;2.05;;;;;;;15.35;100.00;99340.95;1704728;84;20927;-70
2022/09/22 11:50:04;;;;;;;2.50;2.15;;;;;;;15.38;100.00;99341.05;1703312;84;21443;-68
2022/09/22 11:53:06;;;;;;;3.20;1.90;;;;;;;15.42;100.00;99335.59;1704198;84;20958;-72
2022/09/22 11:56:11;;;;;;;5.72;2.20;;;;;;;15.42;100.00;99341.93;1704603;82;21776;-67
2022/09/22 11:58:39;;;;;;;9.78;2.83;;;;;;;15.51;100.00;99336.21;1698646;84;20933;-67
2022/09/22 12:01:12;;;;;;;6.58;2.62;;;;;;;15.50;100.00;99340.16;1679393;85;20932;-70
2022/09/22 12:03:47;;;;;;;4.75;2.95;;;;;;;15.48;100.00;99341.09;1679276;85;21031;-67